Time;durP1;ratioP1;P1;durP2;ratioP2;P2;SDS_P1;SDS_P2;PMS_P1;PMS_P2;Temp;Humidity;BMP_temperature;BMP_pressure;BME280_temperature;BME280_humidity;BME280_pressure;Samples;Min_cycle;Max_cycle;Signal;HPM_P1;HPM_P2
2021/04/16 00:01:56;;;;;;;11.40;5.82;;;;;;;;;;5004917;28;20124;-67
2021/04/16 00:04:24;;;;;;;12.07;5.35;;;;;;;;;;5003181;28;20081;-66
2021/04/16 00:06:52;;;;;;;11.20;4.85;;;;;;;;;;4999623;28;20046;-67
2021/04/16 00:09:19;;;;;;;10.93;5.30;;;;;;;;;;5001955;28;20081;-66
2021/04/16 00:11:46;;;;;;;11.15;5.80;;;;;;;;;;5003334;28;20133;-66
2021/04/16 00:14:14;;;;;;;14.57;5.60;;;;;;;;;;5002514;28;20066;-67
2021/04/16 00:16:43;;;;;;;13.05;5.10;;;;;;;;;;5003880;28;20383;-67
2021/04/16 00:19:10;;;;;;;11.32;5.18;;;;;;;;;;5003427;28;20046;-67
2021/04/16 00:21:38;;;;;;;8.52;5.20;;;;;;;;;;5002676;28;20049;-66
2021/04/16 00:24:06;;;;;;;11.07;4.90;;;;;;;;;;5003635;28;20082;-66
2021/04/16 00:26:33;;;;;;;9.05;5.30;;;;;;;;;;5003678;28;20430;-66
2021/04/16 00:29:00;;;;;;;8.55;5.43;;;;;;;;;;5002803;28;20058;-66
2021/04/16 00:31:31;;;;;;;8.48;5.13;;;;;;;;;;5002952;28;20178;-68
2021/04/16 00:34:00;;;;;;;10.20;5.22;;;;;;;;;;5001969;28;20053;-66
2021/04/16 00:36:28;;;;;;;10.15;5.13;;;;;;;;;;4998036;28;20140;-66
2021/04/16 00:38:55;;;;;;;9.60;5.13;;;;;;;;;;5000974;28;20089;-66
2021/04/16 00:41:24;;;;;;;8.32;5.18;;;;;;;;;;5001197;28;20100;-66
2021/04/16 00:43:51;;;;;;;9.90;5.25;;;;;;;;;;5002038;28;20106;-66
2021/04/16 00:46:21;;;;;;;8.88;4.55;;;;;;;;;;5002450;28;20050;-66
2021/04/16 00:48:50;;;;;;;8.82;5.22;;;;;;;;;;5002204;28;20049;-68
2021/04/16 00:51:21;;;;;;;8.18;4.43;;;;;;;;;;5001587;28;20046;-67
2021/04/16 00:53:49;;;;;;;9.18;4.85;;;;;;;;;;5002432;28;20140;-66
2021/04/16 00:56:17;;;;;;;10.98;4.88;;;;;;;;;;5002977;28;20053;-67
2021/04/16 00:58:44;;;;;;;10.60;4.85;;;;;;;;;;5000901;28;21471;-67
2021/04/16 01:01:12;;;;;;;9.98;5.38;;;;;;;;;;5004138;28;20132;-67
2021/04/16 01:03:39;;;;;;;8.93;5.07;;;;;;;;;;4999151;28;20404;-67
2021/04/16 01:06:08;;;;;;;11.48;5.35;;;;;;;;;;5007836;28;20121;-68
2021/04/16 01:08:37;;;;;;;9.65;5.10;;;;;;;;;;5002931;28;20517;-66
2021/04/16 01:11:05;;;;;;;6.95;4.80;;;;;;;;;;5007774;28;20053;-66
2021/04/16 01:13:32;;;;;;;9.40;5.38;;;;;;;;;;5004424;28;20084;-67
2021/04/16 01:16:03;;;;;;;7.82;5.07;;;;;;;;;;5006809;28;20045;-66
2021/04/16 01:18:32;;;;;;;8.07;4.97;;;;;;;;;;5007950;28;20049;-66
2021/04/16 01:21:00;;;;;;;7.05;4.60;;;;;;;;;;5006814;28;20109;-67
2021/04/16 01:23:32;;;;;;;9.65;5.03;;;;;;;;;;5001759;28;20133;-67
2021/04/16 01:26:01;;;;;;;7.95;4.70;;;;;;;;;;5001759;28;20045;-67
2021/04/16 01:28:29;;;;;;;8.18;4.45;;;;;;;;;;5001021;28;20564;-67
2021/04/16 01:30:58;;;;;;;7.70;5.28;;;;;;;;;;5000112;28;20053;-66
2021/04/16 01:33:26;;;;;;;8.88;4.95;;;;;;;;;;5001532;28;20165;-66
2021/04/16 01:35:55;;;;;;;7.93;4.75;;;;;;;;;;5000876;28;20557;-66
2021/04/16 01:38:23;;;;;;;8.80;5.05;;;;;;;;;;4997726;28;20050;-66
2021/04/16 01:40:50;;;;;;;7.40;4.40;;;;;;;;;;5001608;28;20120;-67
2021/04/16 01:43:20;;;;;;;10.25;5.05;;;;;;;;;;5001922;28;20592;-66
2021/04/16 01:45:48;;;;;;;7.00;4.60;;;;;;;;;;5002746;28;20050;-66
2021/04/16 01:48:15;;;;;;;10.35;4.90;;;;;;;;;;5001202;28;20077;-66
2021/04/16 01:50:43;;;;;;;9.40;4.57;;;;;;;;;;5001781;28;20757;-66
2021/04/16 01:53:10;;;;;;;7.18;5.18;;;;;;;;;;5001826;28;20640;-66
2021/04/16 01:55:37;;;;;;;9.80;4.63;;;;;;;;;;5004179;28;20065;-66
2021/04/16 01:58:04;;;;;;;6.63;4.38;;;;;;;;;;5001358;28;20543;-67
2021/04/16 02:00:34;;;;;;;7.95;5.05;;;;;;;;;;5000455;28;20097;-66
2021/04/16 02:03:02;;;;;;;8.02;4.53;;;;;;;;;;5002411;28;20125;-67
2021/04/16 02:05:30;;;;;;;9.15;4.95;;;;;;;;;;5001549;28;20050;-68
2021/04/16 02:07:58;;;;;;;12.98;5.35;;;;;;;;;;4994953;28;20071;-67
2021/04/16 02:10:25;;;;;;;7.68;4.82;;;;;;;;;;5001162;28;20070;-68
2021/04/16 02:12:53;;;;;;;10.70;4.88;;;;;;;;;;5001357;28;20144;-67
2021/04/16 02:15:20;;;;;;;10.70;5.03;;;;;;;;;;5002133;28;20066;-66
2021/04/16 02:17:49;;;;;;;7.75;5.25;;;;;;;;;;5000954;28;20504;-66
2021/04/16 02:20:19;;;;;;;8.45;5.00;;;;;;;;;;4997494;28;20042;-67
2021/04/16 02:22:46;;;;;;;11.40;5.40;;;;;;;;;;5001109;28;20052;-66
2021/04/16 02:25:14;;;;;;;10.95;5.35;;;;;;;;;;5001620;28;20129;-67
2021/04/16 02:27:41;;;;;;;10.95;5.30;;;;;;;;;;5001343;28;20110;-68
2021/04/16 02:30:09;;;;;;;10.43;5.50;;;;;;;;;;5001001;28;20408;-67
2021/04/16 02:32:37;;;;;;;8.88;5.10;;;;;;;;;;5002142;28;20064;-67
2021/04/16 02:35:06;;;;;;;11.65;6.90;;;;;;;;;;4999628;28;20516;-66
2021/04/16 02:37:33;;;;;;;7.47;4.50;;;;;;;;;;5000367;28;20133;-67
2021/04/16 02:40:01;;;;;;;8.98;5.20;;;;;;;;;;4994905;28;20454;-66
2021/04/16 02:42:28;;;;;;;8.88;5.07;;;;;;;;;;5000571;28;20129;-66
2021/04/16 02:44:56;;;;;;;7.38;4.28;;;;;;;;;;5001298;28;20545;-66
2021/04/16 02:47:23;;;;;;;9.50;4.68;;;;;;;;;;4999801;28;20057;-66
2021/04/16 02:49:51;;;;;;;8.05;5.07;;;;;;;;;;5001668;28;20042;-66
2021/04/16 02:52:19;;;;;;;9.27;5.20;;;;;;;;;;5000896;28;20050;-66
2021/04/16 02:54:46;;;;;;;8.10;5.13;;;;;;;;;;5001427;28;21688;-66
2021/04/16 02:57:14;;;;;;;7.05;4.75;;;;;;;;;;5001347;28;20510;-67
2021/04/16 02:59:41;;;;;;;11.68;5.20;;;;;;;;;;5002130;28;20176;-66
2021/04/16 03:02:08;;;;;;;8.65;4.55;;;;;;;;;;5002405;28;20132;-66
2021/04/16 03:04:40;;;;;;;10.98;5.13;;;;;;;;;;5001052;28;20041;-67
2021/04/16 03:07:08;;;;;;;9.23;4.68;;;;;;;;;;5000305;28;20188;-66
2021/04/16 03:09:36;;;;;;;10.10;4.72;;;;;;;;;;4997125;28;20085;-66
2021/04/16 03:12:04;;;;;;;7.20;4.47;;;;;;;;;;5001672;28;20050;-67
2021/04/16 03:14:31;;;;;;;7.90;4.82;;;;;;;;;;5005591;28;20065;-67
2021/04/16 03:16:58;;;;;;;7.95;5.22;;;;;;;;;;5005710;28;20050;-67
2021/04/16 03:19:26;;;;;;;7.70;4.63;;;;;;;;;;5005028;28;20102;-67
2021/04/16 03:21:53;;;;;;;10.05;5.05;;;;;;;;;;5003677;28;20081;-67
2021/04/16 03:24:20;;;;;;;12.02;5.30;;;;;;;;;;5004418;28;20057;-66
2021/04/16 03:26:49;;;;;;;9.70;4.80;;;;;;;;;;5004359;28;20542;-67
2021/04/16 03:29:16;;;;;;;7.05;4.82;;;;;;;;;;5005131;28;20537;-67
2021/04/16 03:31:45;;;;;;;9.88;5.00;;;;;;;;;;5003983;28;20569;-67
2021/04/16 03:34:13;;;;;;;8.88;4.93;;;;;;;;;;5005296;28;20060;-67
2021/04/16 03:36:41;;;;;;;13.75;5.30;;;;;;;;;;5003596;28;20104;-68
2021/04/16 03:39:09;;;;;;;12.27;4.88;;;;;;;;;;5002665;28;20057;-68
2021/04/16 03:41:36;;;;;;;12.35;5.03;;;;;;;;;;4999782;28;20073;-66
2021/04/16 03:44:05;;;;;;;8.18;5.07;;;;;;;;;;5003967;28;20454;-67
2021/04/16 03:46:32;;;;;;;11.80;5.10;;;;;;;;;;5002496;28;20073;-66
2021/04/16 03:48:59;;;;;;;16.05;5.45;;;;;;;;;;5003007;28;20064;-67
2021/04/16 03:51:27;;;;;;;11.57;5.18;;;;;;;;;;5003934;28;20116;-67
2021/04/16 03:53:55;;;;;;;12.10;5.70;;;;;;;;;;5001484;28;20061;-67
2021/04/16 03:56:23;;;;;;;10.15;5.95;;;;;;;;;;5009858;28;20136;-66
2021/04/16 03:58:51;;;;;;;13.35;5.15;;;;;;;;;;5011693;28;20049;-66
2021/04/16 04:01:19;;;;;;;9.07;5.15;;;;;;;;;;5013359;28;20172;-66
2021/04/16 04:03:46;;;;;;;10.13;5.45;;;;;;;;;;5005004;28;20120;-67
2021/04/16 04:06:14;;;;;;;9.88;5.05;;;;;;;;;;5011207;28;20050;-66
2021/04/16 04:08:41;;;;;;;12.32;5.72;;;;;;;;;;5012055;28;20082;-66
2021/04/16 04:11:08;;;;;;;10.90;4.90;;;;;;;;;;5006670;28;20058;-66
2021/04/16 04:13:36;;;;;;;12.40;5.43;;;;;;;;;;5013026;28;20080;-67
2021/04/16 04:16:04;;;;;;;9.35;5.32;;;;;;;;;;5011186;28;20486;-66
2021/04/16 04:18:32;;;;;;;11.85;5.05;;;;;;;;;;5011622;28;20069;-66
2021/04/16 04:21:00;;;;;;;16.65;5.13;;;;;;;;;;5010974;28;20129;-65
2021/04/16 04:23:28;;;;;;;18.58;5.18;;;;;;;;;;5010596;28;20042;-67
2021/04/16 04:25:57;;;;;;;9.68;5.50;;;;;;;;;;5010323;28;20116;-66
2021/04/16 04:28:24;;;;;;;16.98;4.97;;;;;;;;;;5011181;28;20114;-66
2021/04/16 04:30:52;;;;;;;10.05;5.07;;;;;;;;;;5010908;28;20077;-66
2021/04/16 04:33:19;;;;;;;9.77;5.82;;;;;;;;;;5011623;28;20111;-66
2021/04/16 04:35:48;;;;;;;15.30;6.30;;;;;;;;;;5009070;28;20054;-67
2021/04/16 04:38:16;;;;;;;13.57;6.30;;;;;;;;;;5012697;28;20077;-67
2021/04/16 04:40:43;;;;;;;12.77;6.22;;;;;;;;;;5007870;28;20278;-67
2021/04/16 04:43:11;;;;;;;9.38;5.05;;;;;;;;;;5011032;28;20116;-67
2021/04/16 04:45:38;;;;;;;12.75;5.93;;;;;;;;;;5009518;28;20112;-66
2021/04/16 04:48:06;;;;;;;12.43;5.38;;;;;;;;;;5011634;28;20092;-66
2021/04/16 04:50:34;;;;;;;12.35;5.53;;;;;;;;;;5009298;28;20049;-65
2021/04/16 04:53:02;;;;;;;10.77;5.90;;;;;;;;;;5010962;28;20077;-66
2021/04/16 04:55:30;;;;;;;14.80;5.43;;;;;;;;;;5009393;28;20567;-67
2021/04/16 04:57:58;;;;;;;11.57;6.15;;;;;;;;;;5009464;28;20497;-66
2021/04/16 05:00:25;;;;;;;10.48;5.82;;;;;;;;;;5008418;28;20120;-66
2021/04/16 05:02:53;;;;;;;13.27;5.60;;;;;;;;;;5009045;28;20104;-67
2021/04/16 05:05:21;;;;;;;15.55;6.05;;;;;;;;;;5011663;28;20136;-66
2021/04/16 05:07:48;;;;;;;17.02;5.95;;;;;;;;;;5008805;28;20146;-66
2021/04/16 05:10:17;;;;;;;14.95;5.55;;;;;;;;;;5008243;28;20124;-66
2021/04/16 05:12:46;;;;;;;12.73;6.20;;;;;;;;;;5002824;28;20429;-70
2021/04/16 05:15:14;;;;;;;19.50;5.88;;;;;;;;;;5000283;28;20073;-66
2021/04/16 05:17:41;;;;;;;16.52;5.72;;;;;;;;;;5006106;28;20253;-66
2021/04/16 05:20:10;;;;;;;15.55;5.72;;;;;;;;;;5007482;28;20064;-66
2021/04/16 05:22:37;;;;;;;13.50;5.68;;;;;;;;;;5005119;28;20065;-66
2021/04/16 05:25:05;;;;;;;21.63;6.20;;;;;;;;;;5005537;28;20069;-66
2021/04/16 05:27:33;;;;;;;15.80;5.22;;;;;;;;;;5007848;28;20361;-66
2021/04/16 05:30:01;;;;;;;11.35;5.43;;;;;;;;;;5005225;28;20124;-66
2021/04/16 05:32:28;;;;;;;10.45;5.40;;;;;;;;;;5009349;28;20103;-66
2021/04/16 05:34:56;;;;;;;12.65;5.93;;;;;;;;;;5003169;28;21539;-66
2021/04/16 05:37:23;;;;;;;10.50;5.60;;;;;;;;;;5002448;28;20163;-66
2021/04/16 05:39:52;;;;;;;16.40;6.35;;;;;;;;;;5005785;28;20167;-66
2021/04/16 05:42:19;;;;;;;11.23;6.72;;;;;;;;;;5005534;28;20124;-68
2021/04/16 05:44:48;;;;;;;18.00;6.63;;;;;;;;;;5007979;28;20132;-68
2021/04/16 05:47:15;;;;;;;13.27;6.18;;;;;;;;;;5002492;28;20073;-68
2021/04/16 05:49:43;;;;;;;14.93;7.50;;;;;;;;;;5005319;28;20081;-68
2021/04/16 05:52:11;;;;;;;13.75;7.43;;;;;;;;;;5007378;28;20085;-68
2021/04/16 05:54:38;;;;;;;22.10;7.07;;;;;;;;;;5003264;28;20448;-68
2021/04/16 05:57:06;;;;;;;11.82;7.10;;;;;;;;;;5002206;28;20318;-68
2021/04/16 05:59:33;;;;;;;12.48;7.05;;;;;;;;;;5020440;28;20144;-68
2021/04/16 06:02:01;;;;;;;16.55;7.50;;;;;;;;;;5006953;28;20129;-68
2021/04/16 06:04:44;;;;;;;12.55;6.80;;;;;;;;;;2502054;28;10022742;-68
2021/04/16 06:07:21;;;;;;;13.18;7.35;;;;;;;;;;3625245;28;10001510;-68
2021/04/16 06:09:50;;;;;;;9.52;6.88;;;;;;;;;;5004436;28;20099;-69
2021/04/16 06:12:17;;;;;;;12.95;6.80;;;;;;;;;;5007617;28;20104;-68
2021/04/16 06:14:45;;;;;;;13.48;7.53;;;;;;;;;;5006612;28;20049;-68
2021/04/16 06:17:14;;;;;;;13.10;8.00;;;;;;;;;;5005800;28;20065;-69
2021/04/16 06:19:42;;;;;;;13.80;8.05;;;;;;;;;;5007222;28;20042;-67
2021/04/16 06:22:10;;;;;;;13.10;7.97;;;;;;;;;;5007293;28;20081;-67
2021/04/16 06:24:37;;;;;;;17.13;8.38;;;;;;;;;;5006885;28;20107;-69
2021/04/16 06:27:05;;;;;;;14.75;8.18;;;;;;;;;;5010065;28;20057;-68
2021/04/16 06:29:33;;;;;;;13.30;8.82;;;;;;;;;;5009403;28;20054;-68
2021/04/16 06:32:00;;;;;;;14.75;7.95;;;;;;;;;;5008495;28;20085;-69
2021/04/16 06:34:29;;;;;;;14.75;8.68;;;;;;;;;;5007399;28;20136;-68
2021/04/16 06:36:57;;;;;;;12.82;7.57;;;;;;;;;;5003777;28;20105;-68
2021/04/16 06:39:25;;;;;;;11.20;7.30;;;;;;;;;;5005806;28;20627;-69
2021/04/16 06:41:53;;;;;;;11.57;7.28;;;;;;;;;;5007277;28;20128;-68
2021/04/16 06:44:22;;;;;;;16.90;8.60;;;;;;;;;;5006519;28;20056;-69
2021/04/16 06:46:53;;;;;;;12.32;7.88;;;;;;;;;;5006053;28;20073;-69
2021/04/16 06:49:24;;;;;;;12.35;7.90;;;;;;;;;;5009038;28;20136;-67
2021/04/16 06:52:00;;;;;;;11.05;7.35;;;;;;;;;;5003662;28;20359;-68
2021/04/16 06:54:33;;;;;;;11.00;7.35;;;;;;;;;;5010067;28;20044;-68
2021/04/16 06:57:01;;;;;;;14.18;7.78;;;;;;;;;;5009907;28;20410;-67
2021/04/16 06:59:31;;;;;;;12.65;7.90;;;;;;;;;;5010053;28;20042;-70
2021/04/16 07:02:00;;;;;;;12.23;7.28;;;;;;;;;;5012319;28;20085;-68
2021/04/16 07:04:36;;;;;;;13.13;7.75;;;;;;;;;;5013976;28;20060;-68
2021/04/16 07:07:08;;;;;;;13.23;8.68;;;;;;;;;;4995413;28;20054;-67
2021/04/16 07:09:41;;;;;;;12.00;7.38;;;;;;;;;;4994819;28;20141;-67
2021/04/16 07:12:14;;;;;;;10.38;7.22;;;;;;;;;;4997294;28;20081;-68
2021/04/16 07:14:43;;;;;;;11.25;7.15;;;;;;;;;;4996850;28;20046;-68
2021/04/16 07:17:13;;;;;;;12.73;7.72;;;;;;;;;;5013782;28;20050;-67
2021/04/16 07:19:42;;;;;;;11.82;7.50;;;;;;;;;;5013913;28;20044;-68
2021/04/16 07:22:18;;;;;;;11.25;7.82;;;;;;;;;;5014434;28;20050;-68
2021/04/16 07:24:47;;;;;;;12.30;7.32;;;;;;;;;;5012635;28;20053;-68
2021/04/16 07:27:19;;;;;;;11.82;7.68;;;;;;;;;;5010626;28;20516;-69
2021/04/16 07:29:50;;;;;;;13.65;6.72;;;;;;;;;;5014259;28;20065;-68
2021/04/16 07:32:36;;;;;;;10.85;6.97;;;;;;;;;;5032850;28;20593;-68
2021/04/16 07:35:19;;;;;;;12.77;7.15;;;;;;;;;;5009564;28;20093;-68
2021/04/16 07:37:57;;;;;;;10.43;7.07;;;;;;;;;;5011040;28;20038;-69
2021/04/16 07:40:36;;;;;;;11.05;7.82;;;;;;;;;;5012428;28;20060;-69
2021/04/16 07:43:04;;;;;;;14.02;8.05;;;;;;;;;;5012597;28;20056;-68
2021/04/16 07:45:37;;;;;;;13.50;7.70;;;;;;;;;;5011685;28;20053;-69
2021/04/16 07:48:25;;;;;;;11.40;7.57;;;;;;;;;;4996793;28;20045;-68
2021/04/16 07:50:53;;;;;;;11.52;7.90;;;;;;;;;;5012480;28;20092;-68
2021/04/16 07:53:31;;;;;;;12.55;7.35;;;;;;;;;;5012384;28;20050;-68
2021/04/16 07:56:13;;;;;;;13.63;8.05;;;;;;;;;;5004815;28;20970;-69
2021/04/16 07:58:42;;;;;;;11.40;7.63;;;;;;;;;;5008833;28;20049;-68
2021/04/16 08:01:27;;;;;;;11.85;7.72;;;;;;;;;;5025824;28;20067;-67
2021/04/16 08:03:56;;;;;;;11.73;7.47;;;;;;;;;;5022033;28;20107;-69
2021/04/16 08:06:29;;;;;;;10.38;6.35;;;;;;;;;;5018981;28;20060;-64
2021/04/16 08:08:58;;;;;;;10.68;6.63;;;;;;;;;;5007843;28;20061;-64
2021/04/16 08:11:28;;;;;;;11.68;6.43;;;;;;;;;;5010786;28;20489;-64
2021/04/16 08:13:59;;;;;;;9.75;6.68;;;;;;;;;;5013310;28;20456;-64
2021/04/16 08:16:28;;;;;;;9.93;7.05;;;;;;;;;;5003824;28;20049;-64
2021/04/16 08:19:05;;;;;;;8.00;5.90;;;;;;;;;;5005396;28;20548;-64
2021/04/16 08:21:36;;;;;;;9.05;5.88;;;;;;;;;;5006426;28;20069;-65
2021/04/16 08:24:11;;;;;;;11.43;6.05;;;;;;;;;;5008445;28;20104;-65
2021/04/16 08:26:41;;;;;;;8.85;6.35;;;;;;;;;;5009962;28;20480;-64
2021/04/16 08:29:13;;;;;;;9.93;6.07;;;;;;;;;;5009981;28;20054;-64
2021/04/16 08:31:44;;;;;;;9.13;6.53;;;;;;;;;;5009881;28;20054;-65
2021/04/16 08:34:15;;;;;;;11.60;6.30;;;;;;;;;;5009057;28;20141;-64
2021/04/16 08:36:44;;;;;;;9.63;6.57;;;;;;;;;;5009181;28;20258;-65
2021/04/16 08:39:16;;;;;;;8.65;5.53;;;;;;;;;;5008998;28;20112;-64
2021/04/16 08:41:46;;;;;;;8.40;5.45;;;;;;;;;;5010458;28;20049;-64
2021/04/16 08:44:14;;;;;;;8.05;5.80;;;;;;;;;;5006550;28;20100;-65
2021/04/16 08:46:43;;;;;;;7.90;5.88;;;;;;;;;;5019918;28;20477;-64
2021/04/16 08:49:14;;;;;;;7.22;5.10;;;;;;;;;;5003300;28;20066;-65
2021/04/16 08:51:44;;;;;;;7.90;5.90;;;;;;;;;;5010094;28;20382;-64
2021/04/16 08:54:19;;;;;;;8.73;6.00;;;;;;;;;;5010333;28;20493;-65
2021/04/16 08:56:53;;;;;;;8.23;5.60;;;;;;;;;;5008198;28;20041;-65
2021/04/16 08:59:26;;;;;;;9.35;5.10;;;;;;;;;;5008614;28;20054;-65
2021/04/16 09:01:57;;;;;;;7.47;4.95;;;;;;;;;;5005977;28;20053;-65
2021/04/16 09:04:36;;;;;;;7.15;4.90;;;;;;;;;;5009592;28;20053;-65
2021/04/16 09:07:04;;;;;;;6.07;4.50;;;;;;;;;;5008825;28;20053;-65
2021/04/16 09:09:41;;;;;;;5.55;4.55;;;;;;;;;;5002473;28;20464;-65
2021/04/16 09:12:10;;;;;;;6.10;4.45;;;;;;;;;;5002443;28;20509;-65
2021/04/16 09:14:54;;;;;;;8.15;4.82;;;;;;;;;;5008399;28;20053;-65
2021/04/16 09:17:42;;;;;;;10.95;4.45;;;;;;;;;;5008340;28;20053;-65
2021/04/16 09:20:10;;;;;;;5.75;4.22;;;;;;;;;;4993606;28;20050;-65
2021/04/16 09:22:42;;;;;;;5.68;4.00;;;;;;;;;;5008960;28;20050;-65
2021/04/16 09:25:28;;;;;;;4.85;4.07;;;;;;;;;;5010037;28;20050;-65
2021/04/16 09:28:18;;;;;;;7.78;4.90;;;;;;;;;;5008575;28;20086;-64
2021/04/16 09:30:46;;;;;;;5.90;3.67;;;;;;;;;;4999891;28;20049;-65
2021/04/16 09:33:14;;;;;;;5.68;3.75;;;;;;;;;;5007419;28;20092;-65
2021/04/16 09:35:47;;;;;;;7.18;4.47;;;;;;;;;;5005934;28;20049;-65
2021/04/16 09:38:26;;;;;;;6.75;4.10;;;;;;;;;;5007387;28;20042;-66
2021/04/16 09:41:08;;;;;;;5.72;3.85;;;;;;;;;;4996568;28;20138;-65
2021/04/16 09:43:37;;;;;;;6.13;4.45;;;;;;;;;;5007765;28;20125;-65
2021/04/16 09:46:21;;;;;;;4.55;3.90;;;;;;;;;;5007777;28;20046;-65
2021/04/16 09:48:50;;;;;;;5.15;3.78;;;;;;;;;;5007911;28;20399;-65
2021/04/16 09:51:19;;;;;;;5.18;4.20;;;;;;;;;;5004756;28;20132;-66
2021/04/16 09:54:01;;;;;;;6.18;4.50;;;;;;;;;;5008347;28;20046;-65
2021/04/16 09:56:29;;;;;;;4.93;3.45;;;;;;;;;;5004965;28;20054;-65
2021/04/16 09:59:02;;;;;;;7.32;4.70;;;;;;;;;;5008110;28;20050;-65
2021/04/16 10:01:30;;;;;;;6.68;3.70;;;;;;;;;;5004638;28;20050;-65
2021/04/16 10:04:00;;;;;;;4.43;3.95;;;;;;;;;;5003452;28;20060;-65
2021/04/16 10:06:32;;;;;;;5.03;3.85;;;;;;;;;;5007335;28;20404;-65
2021/04/16 10:09:17;;;;;;;5.47;3.88;;;;;;;;;;5007448;28;20052;-65
2021/04/16 10:11:45;;;;;;;;;;;;;;;;;;4999405;28;20050;-65
2021/04/16 10:14:16;;;;;;;4.25;3.53;;;;;;;;;;5007983;28;20317;-65
2021/04/16 10:16:45;;;;;;;7.18;4.78;;;;;;;;;;5008139;28;20539;-66
2021/04/16 10:19:15;;;;;;;6.82;4.03;;;;;;;;;;5006256;28;20295;-66
2021/04/16 10:21:43;;;;;;;4.30;3.53;;;;;;;;;;5005887;28;20042;-66
2021/04/16 12:39:07;;;;;;;7.38;5.65;;;;;;;;;;4965978;28;20074;-65
2021/04/16 12:41:38;;;;;;;7.75;5.05;;;;;;;;;;4958430;28;20070;-65
2021/04/16 12:44:07;;;;;;;7.25;5.38;;;;;;;;;;4971103;28;20066;-64
2021/04/16 12:46:37;;;;;;;10.48;5.32;;;;;;;;;;4969366;28;20054;-65
2021/04/16 12:49:06;;;;;;;8.02;5.78;;;;;;;;;;4951697;28;20051;-65
2021/04/16 12:51:33;;;;;;;10.23;5.70;;;;;;;;;;4951060;29;20070;-64
2021/04/16 12:54:01;;;;;;;8.88;5.10;;;;;;;;;;4950998;28;20047;-65
2021/04/16 12:56:33;;;;;;;6.80;4.95;;;;;;;;;;4948538;29;20479;-64
2021/04/16 12:59:05;;;;;;;7.05;5.43;;;;;;;;;;4969371;28;20473;-64
2021/04/16 13:01:35;;;;;;;9.20;5.40;;;;;;;;;;4969646;28;20050;-64
2021/04/16 13:04:03;;;;;;;7.28;5.18;;;;;;;;;;4977485;28;20280;-65
2021/04/16 13:06:33;;;;;;;8.77;5.88;;;;;;;;;;4987070;28;20050;-65
2021/04/16 13:09:02;;;;;;;9.45;5.68;;;;;;;;;;4981623;28;20516;-65
2021/04/16 13:11:30;;;;;;;9.27;5.28;;;;;;;;;;4986347;28;20045;-65
2021/04/16 13:13:58;;;;;;;9.77;5.38;;;;;;;;;;4988104;28;20479;-65
2021/04/16 13:16:27;;;;;;;6.68;5.20;;;;;;;;;;4976252;28;20046;-65
2021/04/16 13:18:57;;;;;;;6.10;5.20;;;;;;;;;;5004142;28;20088;-65
2021/04/16 13:21:28;;;;;;;9.48;5.30;;;;;;;;;;5008979;28;20125;-65
2021/04/16 13:23:57;;;;;;;7.40;4.95;;;;;;;;;;5008963;28;20049;-65
2021/04/16 13:26:25;;;;;;;7.13;5.60;;;;;;;;;;5008594;28;20049;-65
2021/04/16 13:28:54;;;;;;;6.93;5.30;;;;;;;;;;5007020;28;20046;-66
2021/04/16 13:31:22;;;;;;;8.48;5.85;;;;;;;;;;5008190;28;20058;-65
2021/04/16 13:33:51;;;;;;;6.60;5.10;;;;;;;;;;5007222;28;20053;-65
2021/04/16 13:36:22;;;;;;;12.68;5.60;;;;;;;;;;5003558;28;20045;-65
2021/04/16 13:38:51;;;;;;;9.10;5.18;;;;;;;;;;5004721;28;20054;-65
2021/04/16 13:41:20;;;;;;;6.22;4.65;;;;;;;;;;5008285;28;20053;-65
2021/04/16 13:43:49;;;;;;;6.55;4.75;;;;;;;;;;5007450;28;20050;-65
2021/04/16 13:46:19;;;;;;;6.72;5.00;;;;;;;;;;5004737;28;20097;-65
2021/04/16 13:48:47;;;;;;;9.55;5.38;;;;;;;;;;5005134;28;20046;-65
2021/04/16 13:51:16;;;;;;;5.30;4.05;;;;;;;;;;5007772;28;20057;-64
2021/04/16 13:53:45;;;;;;;7.43;5.22;;;;;;;;;;5009107;28;20477;-65
2021/04/16 13:56:13;;;;;;;5.78;5.03;;;;;;;;;;5013602;28;20058;-65
2021/04/16 13:58:41;;;;;;;6.80;4.88;;;;;;;;;;5008662;28;20471;-65
2021/04/16 14:01:10;;;;;;;5.88;4.80;;;;;;;;;;5006912;28;20694;-65
2021/04/16 14:03:40;;;;;;;6.50;5.07;;;;;;;;;;5006674;28;20556;-65
2021/04/16 14:06:12;;;;;;;5.97;4.72;;;;;;;;;;5007171;28;20046;-65
2021/04/16 14:08:42;;;;;;;7.20;4.72;;;;;;;;;;5007890;28;20506;-65
2021/04/16 14:11:11;;;;;;;7.00;5.03;;;;;;;;;;5008549;28;20057;-65
2021/04/16 14:13:39;;;;;;;7.32;5.10;;;;;;;;;;5007012;28;20042;-65
2021/04/16 14:16:13;;;;;;;6.60;4.60;;;;;;;;;;5008286;28;20049;-65
2021/04/16 14:18:43;;;;;;;7.32;4.90;;;;;;;;;;5008064;28;20053;-65
2021/04/16 14:21:12;;;;;;;6.13;4.68;;;;;;;;;;5009741;28;20485;-65
2021/04/16 14:23:40;;;;;;;6.00;4.60;;;;;;;;;;5006286;28;20037;-65
2021/04/16 14:26:09;;;;;;;7.78;5.28;;;;;;;;;;5007060;28;20135;-66
2021/04/16 14:28:39;;;;;;;9.05;5.07;;;;;;;;;;5005185;28;20052;-65
2021/04/16 14:31:08;;;;;;;7.78;4.85;;;;;;;;;;5006461;28;20054;-65
2021/04/16 14:33:38;;;;;;;6.35;4.90;;;;;;;;;;5005337;28;20061;-65
2021/04/16 14:36:25;;;;;;;6.68;4.63;;;;;;;;;;5017879;28;20068;-65
2021/04/16 14:38:53;;;;;;;7.35;5.10;;;;;;;;;;5007900;28;20044;-66
2021/04/16 14:41:24;;;;;;;5.85;4.50;;;;;;;;;;5020921;28;20056;-65
2021/04/16 14:43:52;;;;;;;8.82;5.20;;;;;;;;;;5016256;28;20045;-65
2021/04/16 14:46:20;;;;;;;7.13;4.25;;;;;;;;;;5007492;28;20470;-65
2021/04/16 14:48:48;;;;;;;8.35;5.13;;;;;;;;;;5007396;28;20045;-65
2021/04/16 14:51:16;;;;;;;7.75;4.78;;;;;;;;;;5013292;28;20049;-66
2021/04/16 14:53:45;;;;;;;7.78;4.95;;;;;;;;;;5006393;28;20056;-65
2021/04/16 14:56:15;;;;;;;8.23;4.93;;;;;;;;;;5008856;28;20105;-65
2021/04/16 14:58:44;;;;;;;6.07;4.57;;;;;;;;;;5008828;28;20139;-65
2021/04/16 15:01:13;;;;;;;7.18;4.72;;;;;;;;;;5007704;28;20054;-65
2021/04/16 15:03:42;;;;;;;6.85;5.15;;;;;;;;;;5006691;28;20065;-65
2021/04/16 15:06:15;;;;;;;8.32;4.82;;;;;;;;;;5008178;28;20050;-65
2021/04/16 15:08:45;;;;;;;7.03;4.80;;;;;;;;;;5017073;28;20053;-65
2021/04/16 15:11:14;;;;;;;8.77;5.05;;;;;;;;;;5011617;28;20054;-65
2021/04/16 15:13:42;;;;;;;7.30;5.07;;;;;;;;;;5014412;28;20045;-65
2021/04/16 15:16:15;;;;;;;5.78;4.57;;;;;;;;;;5015956;28;20050;-65
2021/04/16 15:21:43;;;;;;;7.40;5.00;;;;;;;;;;5014468;28;20050;-65
2021/04/16 15:24:11;;;;;;;7.78;5.32;;;;;;;;;;5015123;28;20053;-70
2021/04/16 15:26:38;;;;;;;5.97;4.68;;;;;;;;;;5012970;28;20076;-69
2021/04/16 15:29:07;;;;;;;9.50;4.78;;;;;;;;;;5011730;28;20054;-68
2021/04/16 15:31:40;;;;;;;5.38;4.43;;;;;;;;;;5011583;28;20046;-71
2021/04/16 15:47:46;;;;;;;7.57;4.75;;;;;;;;;;5011892;28;20057;-71
2021/04/16 15:50:16;;;;;;;6.70;4.90;;;;;;;;;;5012561;28;20527;-70
2021/04/16 15:52:43;;;;;;;5.88;4.20;;;;;;;;;;5013769;28;20050;-73
2021/04/16 15:55:12;;;;;;;9.05;4.95;;;;;;;;;;5012391;28;20050;-67
2021/04/16 15:57:41;;;;;;;6.50;4.50;;;;;;;;;;5011688;28;20038;-68
2021/04/16 16:00:12;;;;;;;7.15;4.93;;;;;;;;;;5012260;28;20054;-70
2021/04/16 16:02:40;;;;;;;6.88;4.93;;;;;;;;;;5012576;28;20049;-69
2021/04/16 16:05:10;;;;;;;6.88;4.60;;;;;;;;;;5017844;28;20050;-68
2021/04/16 16:07:37;;;;;;;11.65;4.85;;;;;;;;;;5009915;28;20140;-69
2021/04/16 16:10:06;;;;;;;7.88;5.15;;;;;;;;;;5017773;28;20049;-69
2021/04/16 16:12:35;;;;;;;8.63;4.75;;;;;;;;;;5030128;28;20493;-69
2021/04/16 16:15:09;;;;;;;9.00;4.85;;;;;;;;;;5012616;28;20236;-68
2021/04/16 16:17:39;;;;;;;7.15;5.00;;;;;;;;;;5009491;28;20140;-68
2021/04/16 16:20:11;;;;;;;6.82;5.00;;;;;;;;;;5009762;28;20518;-67
2021/04/16 16:22:40;;;;;;;8.35;5.25;;;;;;;;;;5010956;28;20433;-68
2021/04/16 16:25:10;;;;;;;8.18;4.75;;;;;;;;;;5009553;28;20164;-68
2021/04/16 16:27:40;;;;;;;10.60;4.60;;;;;;;;;;5008333;28;20046;-70
2021/04/16 16:30:10;;;;;;;5.82;4.55;;;;;;;;;;5009101;28;20053;-68
2021/04/16 16:32:38;;;;;;;8.77;4.90;;;;;;;;;;5006907;28;20089;-67
2021/04/16 16:35:06;;;;;;;9.38;5.35;;;;;;;;;;5007809;28;20559;-67
2021/04/16 16:37:35;;;;;;;6.25;4.40;;;;;;;;;;5007126;28;20088;-68
2021/04/16 16:40:03;;;;;;;6.05;4.53;;;;;;;;;;5007493;28;20478;-68
2021/04/16 16:42:34;;;;;;;10.93;5.45;;;;;;;;;;5006736;28;20340;-69
2021/04/16 16:45:01;;;;;;;6.65;4.72;;;;;;;;;;5008731;28;20053;-68
2021/04/16 16:47:29;;;;;;;8.43;5.55;;;;;;;;;;5006711;28;20116;-68
2021/04/16 16:49:57;;;;;;;8.02;5.28;;;;;;;;;;5007079;28;20058;-68
2021/04/16 16:52:25;;;;;;;6.47;4.80;;;;;;;;;;5007766;28;20049;-67
2021/04/16 16:54:53;;;;;;;6.15;4.20;;;;;;;;;;5017697;28;20136;-68
2021/04/16 16:57:23;;;;;;;9.27;4.55;;;;;;;;;;5010279;28;20138;-68
2021/04/16 16:59:51;;;;;;;6.70;4.20;;;;;;;;;;5009088;28;20061;-68
2021/04/16 17:02:19;;;;;;;5.53;4.13;;;;;;;;;;5009039;28;20123;-67
2021/04/16 17:04:46;;;;;;;8.55;4.72;;;;;;;;;;5006473;28;20062;-68
2021/04/16 17:07:14;;;;;;;8.00;5.10;;;;;;;;;;5007552;28;20057;-70
2021/04/16 17:09:42;;;;;;;13.05;5.25;;;;;;;;;;5007083;28;20054;-67
2021/04/16 17:12:10;;;;;;;8.65;4.82;;;;;;;;;;5014127;28;20521;-67
2021/04/16 17:14:39;;;;;;;8.48;5.38;;;;;;;;;;5014948;28;20124;-67
2021/04/16 17:17:07;;;;;;;7.25;5.20;;;;;;;;;;5007100;28;20062;-67
2021/04/16 17:19:35;;;;;;;7.60;4.90;;;;;;;;;;5024332;28;20049;-67
2021/04/16 17:22:03;;;;;;;8.55;5.70;;;;;;;;;;5025525;28;20050;-66
2021/04/16 17:24:31;;;;;;;7.15;4.88;;;;;;;;;;5011820;28;20084;-67